sensor_id;sensor_type;location;lat;lon;timestamp;P1;durP1;ratioP1;P2;durP2;ratioP2
81124;SDS011;72192;52.114;5.424;2023-09-30T00:05:18;8.02;;;2.13;;
81124;SDS011;72192;52.114;5.424;2023-09-30T00:08:06;7.82;;;2.63;;
81124;SDS011;72192;52.114;5.424;2023-09-30T00:10:54;9.52;;;3.13;;
81124;SDS011;72192;52.114;5.424;2023-09-30T00:13:42;11.82;;;3.97;;
81124;SDS011;72192;52.114;5.424;2023-09-30T00:16:32;10.90;;;3.53;;
81124;SDS011;72192;52.114;5.424;2023-09-30T00:19:21;10.05;;;3.03;;
81124;SDS011;72192;52.114;5.424;2023-09-30T00:22:09;10.00;;;3.20;;
81124;SDS011;72192;52.114;5.424;2023-09-30T00:24:57;10.35;;;3.63;;
81124;SDS011;72192;52.114;5.424;2023-09-30T00:27:45;11.63;;;3.40;;
81124;SDS011;72192;52.114;5.424;2023-09-30T00:30:34;13.65;;;3.90;;
81124;SDS011;72192;52.114;5.424;2023-09-30T00:33:22;10.85;;;3.60;;
81124;SDS011;72192;52.114;5.424;2023-09-30T00:36:11;10.38;;;3.42;;
81124;SDS011;72192;52.114;5.424;2023-09-30T00:38:59;12.30;;;3.70;;
81124;SDS011;72192;52.114;5.424;2023-09-30T00:41:47;12.35;;;3.92;;
81124;SDS011;72192;52.114;5.424;2023-09-30T00:44:36;12.45;;;3.85;;
81124;SDS011;72192;52.114;5.424;2023-09-30T00:47:25;10.45;;;4.10;;
81124;SDS011;72192;52.114;5.424;2023-09-30T00:50:13;11.30;;;4.32;;
81124;SDS011;72192;52.114;5.424;2023-09-30T00:53:02;13.35;;;5.18;;
81124;SDS011;72192;52.114;5.424;2023-09-30T00:55:51;10.50;;;4.32;;
81124;SDS011;72192;52.114;5.424;2023-09-30T00:58:42;12.50;;;4.63;;
81124;SDS011;72192;52.114;5.424;2023-09-30T01:01:32;17.90;;;4.60;;
81124;SDS011;72192;52.114;5.424;2023-09-30T01:04:21;11.50;;;4.28;;
81124;SDS011;72192;52.114;5.424;2023-09-30T01:07:09;11.55;;;5.03;;
81124;SDS011;72192;52.114;5.424;2023-09-30T01:09:57;16.00;;;4.93;;
81124;SDS011;72192;52.114;5.424;2023-09-30T01:12:46;11.07;;;4.32;;
81124;SDS011;72192;52.114;5.424;2023-09-30T01:15:34;10.05;;;4.72;;
81124;SDS011;72192;52.114;5.424;2023-09-30T01:18:23;14.35;;;5.22;;
81124;SDS011;72192;52.114;5.424;2023-09-30T01:21:11;13.25;;;4.63;;
81124;SDS011;72192;52.114;5.424;2023-09-30T01:24:01;11.43;;;5.05;;
81124;SDS011;72192;52.114;5.424;2023-09-30T01:26:49;11.77;;;5.00;;
81124;SDS011;72192;52.114;5.424;2023-09-30T01:29:37;14.32;;;5.32;;
81124;SDS011;72192;52.114;5.424;2023-09-30T01:32:25;14.45;;;5.20;;
81124;SDS011;72192;52.114;5.424;2023-09-30T01:35:14;13.43;;;4.68;;
81124;SDS011;72192;52.114;5.424;2023-09-30T01:38:02;13.93;;;5.45;;
81124;SDS011;72192;52.114;5.424;2023-09-30T01:40:51;13.05;;;5.43;;
81124;SDS011;72192;52.114;5.424;2023-09-30T01:43:40;15.70;;;5.15;;
81124;SDS011;72192;52.114;5.424;2023-09-30T01:46:28;10.45;;;4.82;;
81124;SDS011;72192;52.114;5.424;2023-09-30T01:49:17;15.35;;;5.60;;
81124;SDS011;72192;52.114;5.424;2023-09-30T01:52:05;14.30;;;5.40;;
81124;SDS011;72192;52.114;5.424;2023-09-30T01:54:53;14.00;;;5.53;;
81124;SDS011;72192;52.114;5.424;2023-09-30T01:57:41;15.25;;;6.03;;
81124;SDS011;72192;52.114;5.424;2023-09-30T02:00:30;15.00;;;4.93;;
81124;SDS011;72192;52.114;5.424;2023-09-30T02:03:18;13.23;;;4.38;;
81124;SDS011;72192;52.114;5.424;2023-09-30T02:06:06;11.82;;;4.43;;
81124;SDS011;72192;52.114;5.424;2023-09-30T02:08:56;12.90;;;4.60;;
81124;SDS011;72192;52.114;5.424;2023-09-30T02:11:44;13.80;;;4.28;;
81124;SDS011;72192;52.114;5.424;2023-09-30T02:14:33;12.55;;;4.57;;
81124;SDS011;72192;52.114;5.424;2023-09-30T02:17:21;12.93;;;4.80;;
81124;SDS011;72192;52.114;5.424;2023-09-30T02:20:09;12.95;;;5.05;;
81124;SDS011;72192;52.114;5.424;2023-09-30T02:23:02;14.98;;;6.25;;
81124;SDS011;72192;52.114;5.424;2023-09-30T02:25:52;10.52;;;4.88;;
81124;SDS011;72192;52.114;5.424;2023-09-30T02:28:40;14.00;;;5.90;;
81124;SDS011;72192;52.114;5.424;2023-09-30T02:31:28;13.00;;;5.60;;
81124;SDS011;72192;52.114;5.424;2023-09-30T02:34:16;13.13;;;5.03;;
81124;SDS011;72192;52.114;5.424;2023-09-30T02:37:05;16.88;;;5.78;;
81124;SDS011;72192;52.114;5.424;2023-09-30T02:42:41;13.48;;;4.95;;
81124;SDS011;72192;52.114;5.424;2023-09-30T02:45:30;13.70;;;4.75;;
81124;SDS011;72192;52.114;5.424;2023-09-30T02:48:19;12.23;;;4.97;;
81124;SDS011;72192;52.114;5.424;2023-09-30T02:51:10;13.02;;;5.53;;
81124;SDS011;72192;52.114;5.424;2023-09-30T02:53:59;12.93;;;5.55;;
81124;SDS011;72192;52.114;5.424;2023-09-30T02:56:47;12.00;;;5.53;;
81124;SDS011;72192;52.114;5.424;2023-09-30T02:59:35;15.07;;;5.97;;
81124;SDS011;72192;52.114;5.424;2023-09-30T03:02:23;14.85;;;5.78;;
81124;SDS011;72192;52.114;5.424;2023-09-30T03:04:53;11.50;;;5.35;;
81124;SDS011;72192;52.114;5.424;2023-09-30T03:07:44;15.07;;;5.90;;
81124;SDS011;72192;52.114;5.424;2023-09-30T03:10:33;14.30;;;5.15;;
81124;SDS011;72192;52.114;5.424;2023-09-30T03:13:26;13.57;;;5.65;;
81124;SDS011;72192;52.114;5.424;2023-09-30T03:16:15;12.80;;;5.82;;
81124;SDS011;72192;52.114;5.424;2023-09-30T03:19:03;15.25;;;6.43;;
81124;SDS011;72192;52.114;5.424;2023-09-30T03:21:52;14.63;;;5.68;;
81124;SDS011;72192;52.114;5.424;2023-09-30T03:24:40;14.40;;;6.68;;
81124;SDS011;72192;52.114;5.424;2023-09-30T03:27:30;13.48;;;5.63;;
81124;SDS011;72192;52.114;5.424;2023-09-30T03:30:18;17.00;;;6.72;;
81124;SDS011;72192;52.114;5.424;2023-09-30T03:33:06;17.55;;;6.25;;
81124;SDS011;72192;52.114;5.424;2023-09-30T03:38:44;12.82;;;5.00;;
81124;SDS011;72192;52.114;5.424;2023-09-30T03:41:33;13.52;;;5.68;;
81124;SDS011;72192;52.114;5.424;2023-09-30T03:44:23;13.13;;;6.05;;
81124;SDS011;72192;52.114;5.424;2023-09-30T03:47:11;17.50;;;7.20;;
81124;SDS011;72192;52.114;5.424;2023-09-30T03:49:59;16.67;;;6.90;;
81124;SDS011;72192;52.114;5.424;2023-09-30T03:52:52;15.60;;;7.15;;
81124;SDS011;72192;52.114;5.424;2023-09-30T03:55:51;17.23;;;7.32;;
81124;SDS011;72192;52.114;5.424;2023-09-30T03:58:42;18.25;;;7.50;;
81124;SDS011;72192;52.114;5.424;2023-09-30T04:01:34;17.25;;;8.02;;
81124;SDS011;72192;52.114;5.424;2023-09-30T04:04:26;26.75;;;8.52;;
81124;SDS011;72192;52.114;5.424;2023-09-30T04:07:15;15.73;;;7.85;;
81124;SDS011;72192;52.114;5.424;2023-09-30T04:10:03;17.48;;;8.68;;
81124;SDS011;72192;52.114;5.424;2023-09-30T04:12:51;17.67;;;8.30;;
81124;SDS011;72192;52.114;5.424;2023-09-30T04:15:40;18.88;;;8.85;;
81124;SDS011;72192;52.114;5.424;2023-09-30T04:18:28;20.65;;;8.82;;
81124;SDS011;72192;52.114;5.424;2023-09-30T04:21:17;21.00;;;9.25;;
81124;SDS011;72192;52.114;5.424;2023-09-30T04:24:05;18.55;;;9.18;;
81124;SDS011;72192;52.114;5.424;2023-09-30T04:26:53;19.75;;;8.15;;
81124;SDS011;72192;52.114;5.424;2023-09-30T04:32:37;18.35;;;8.23;;
81124;SDS011;72192;52.114;5.424;2023-09-30T04:35:25;20.65;;;8.55;;
81124;SDS011;72192;52.114;5.424;2023-09-30T04:38:16;17.55;;;9.32;;
81124;SDS011;72192;52.114;5.424;2023-09-30T04:41:04;18.77;;;8.52;;
81124;SDS011;72192;52.114;5.424;2023-09-30T04:43:56;20.98;;;9.88;;
81124;SDS011;72192;52.114;5.424;2023-09-30T04:46:44;23.48;;;9.82;;
81124;SDS011;72192;52.114;5.424;2023-09-30T04:49:32;18.77;;;9.35;;
81124;SDS011;72192;52.114;5.424;2023-09-30T04:52:20;24.17;;;9.88;;
81124;SDS011;72192;52.114;5.424;2023-09-30T04:54:51;21.38;;;9.77;;
81124;SDS011;72192;52.114;5.424;2023-09-30T04:57:39;24.35;;;9.98;;
81124;SDS011;72192;52.114;5.424;2023-09-30T05:00:27;23.75;;;9.18;;
81124;SDS011;72192;52.114;5.424;2023-09-30T05:03:16;24.58;;;10.10;;
81124;SDS011;72192;52.114;5.424;2023-09-30T05:06:05;17.38;;;9.27;;
81124;SDS011;72192;52.114;5.424;2023-09-30T05:08:54;21.95;;;10.15;;
81124;SDS011;72192;52.114;5.424;2023-09-30T05:11:42;23.38;;;10.38;;
81124;SDS011;72192;52.114;5.424;2023-09-30T05:14:31;24.88;;;10.88;;
81124;SDS011;72192;52.114;5.424;2023-09-30T05:17:19;23.88;;;10.70;;
81124;SDS011;72192;52.114;5.424;2023-09-30T05:20:08;20.38;;;8.77;;
81124;SDS011;72192;52.114;5.424;2023-09-30T05:22:58;17.02;;;9.05;;
81124;SDS011;72192;52.114;5.424;2023-09-30T05:25:46;21.73;;;9.82;;
81124;SDS011;72192;52.114;5.424;2023-09-30T05:28:35;18.92;;;9.75;;
81124;SDS011;72192;52.114;5.424;2023-09-30T05:31:23;24.15;;;10.10;;
81124;SDS011;72192;52.114;5.424;2023-09-30T05:34:11;26.60;;;10.70;;
81124;SDS011;72192;52.114;5.424;2023-09-30T05:36:59;22.65;;;10.55;;
81124;SDS011;72192;52.114;5.424;2023-09-30T05:39:47;21.80;;;10.05;;
81124;SDS011;72192;52.114;5.424;2023-09-30T05:42:36;23.42;;;10.90;;
81124;SDS011;72192;52.114;5.424;2023-09-30T05:45:24;21.45;;;10.43;;
81124;SDS011;72192;52.114;5.424;2023-09-30T05:48:15;28.27;;;12.43;;
81124;SDS011;72192;52.114;5.424;2023-09-30T05:51:03;23.52;;;10.63;;
81124;SDS011;72192;52.114;5.424;2023-09-30T05:53:52;22.20;;;10.38;;
81124;SDS011;72192;52.114;5.424;2023-09-30T05:56:41;21.17;;;10.23;;
81124;SDS011;72192;52.114;5.424;2023-09-30T05:59:29;22.65;;;10.82;;
81124;SDS011;72192;52.114;5.424;2023-09-30T06:02:17;25.83;;;10.88;;
81124;SDS011;72192;52.114;5.424;2023-09-30T06:05:06;20.77;;;10.95;;
81124;SDS011;72192;52.114;5.424;2023-09-30T06:07:54;24.42;;;11.43;;
81124;SDS011;72192;52.114;5.424;2023-09-30T06:10:43;25.42;;;11.95;;
81124;SDS011;72192;52.114;5.424;2023-09-30T06:13:32;22.98;;;10.95;;
81124;SDS011;72192;52.114;5.424;2023-09-30T06:16:21;23.35;;;11.07;;
81124;SDS011;72192;52.114;5.424;2023-09-30T06:19:12;26.02;;;12.43;;
81124;SDS011;72192;52.114;5.424;2023-09-30T06:22:00;24.63;;;11.75;;
81124;SDS011;72192;52.114;5.424;2023-09-30T06:27:37;23.13;;;11.93;;
81124;SDS011;72192;52.114;5.424;2023-09-30T06:30:25;27.38;;;12.77;;
81124;SDS011;72192;52.114;5.424;2023-09-30T06:33:16;28.23;;;11.98;;
81124;SDS011;72192;52.114;5.424;2023-09-30T06:36:08;26.23;;;12.30;;
81124;SDS011;72192;52.114;5.424;2023-09-30T06:38:56;24.23;;;11.45;;
81124;SDS011;72192;52.114;5.424;2023-09-30T06:41:45;27.02;;;11.85;;
81124;SDS011;72192;52.114;5.424;2023-09-30T06:44:33;23.95;;;11.93;;
81124;SDS011;72192;52.114;5.424;2023-09-30T06:47:21;28.02;;;12.68;;
81124;SDS011;72192;52.114;5.424;2023-09-30T06:50:10;24.55;;;12.55;;
81124;SDS011;72192;52.114;5.424;2023-09-30T06:53:03;22.35;;;12.05;;
81124;SDS011;72192;52.114;5.424;2023-09-30T06:55:51;25.23;;;13.02;;
81124;SDS011;72192;52.114;5.424;2023-09-30T06:58:39;25.25;;;12.02;;
81124;SDS011;72192;52.114;5.424;2023-09-30T07:01:27;25.60;;;12.18;;
81124;SDS011;72192;52.114;5.424;2023-09-30T07:04:16;23.63;;;12.38;;
81124;SDS011;72192;52.114;5.424;2023-09-30T07:09:52;24.05;;;11.30;;
81124;SDS011;72192;52.114;5.424;2023-09-30T07:12:40;25.52;;;11.95;;
81124;SDS011;72192;52.114;5.424;2023-09-30T07:18:16;20.63;;;10.93;;
81124;SDS011;72192;52.114;5.424;2023-09-30T07:21:05;23.40;;;11.63;;
81124;SDS011;72192;52.114;5.424;2023-09-30T07:23:54;22.40;;;10.13;;
81124;SDS011;72192;52.114;5.424;2023-09-30T07:26:42;19.88;;;11.45;;
81124;SDS011;72192;52.114;5.424;2023-09-30T07:29:30;20.02;;;10.57;;
81124;SDS011;72192;52.114;5.424;2023-09-30T07:32:19;27.67;;;11.25;;
81124;SDS011;72192;52.114;5.424;2023-09-30T07:35:10;20.50;;;10.20;;
81124;SDS011;72192;52.114;5.424;2023-09-30T07:38:03;22.80;;;10.40;;
81124;SDS011;72192;52.114;5.424;2023-09-30T07:40:51;21.85;;;10.30;;
81124;SDS011;72192;52.114;5.424;2023-09-30T07:43:39;22.88;;;10.27;;
81124;SDS011;72192;52.114;5.424;2023-09-30T07:46:27;19.80;;;10.57;;
81124;SDS011;72192;52.114;5.424;2023-09-30T07:49:16;21.23;;;10.30;;
81124;SDS011;72192;52.114;5.424;2023-09-30T07:52:05;19.35;;;10.43;;
81124;SDS011;72192;52.114;5.424;2023-09-30T07:54:53;23.55;;;11.15;;
81124;SDS011;72192;52.114;5.424;2023-09-30T07:57:42;19.83;;;10.25;;
81124;SDS011;72192;52.114;5.424;2023-09-30T08:00:32;20.42;;;9.48;;
81124;SDS011;72192;52.114;5.424;2023-09-30T08:03:20;24.20;;;10.02;;
81124;SDS011;72192;52.114;5.424;2023-09-30T08:08:56;16.98;;;9.00;;
81124;SDS011;72192;52.114;5.424;2023-09-30T08:14:32;23.52;;;11.45;;
81124;SDS011;72192;52.114;5.424;2023-09-30T08:17:20;22.35;;;9.80;;
81124;SDS011;72192;52.114;5.424;2023-09-30T08:22:57;19.27;;;7.85;;
81124;SDS011;72192;52.114;5.424;2023-09-30T08:25:46;18.33;;;8.95;;
81124;SDS011;72192;52.114;5.424;2023-09-30T08:31:22;16.08;;;8.00;;
81124;SDS011;72192;52.114;5.424;2023-09-30T08:34:10;16.20;;;8.05;;
81124;SDS011;72192;52.114;5.424;2023-09-30T08:37:01;15.98;;;7.80;;
81124;SDS011;72192;52.114;5.424;2023-09-30T08:39:49;14.82;;;6.85;;
81124;SDS011;72192;52.114;5.424;2023-09-30T08:42:39;16.83;;;8.13;;
81124;SDS011;72192;52.114;5.424;2023-09-30T08:45:27;13.85;;;8.07;;
81124;SDS011;72192;52.114;5.424;2023-09-30T08:48:17;14.98;;;7.53;;
81124;SDS011;72192;52.114;5.424;2023-09-30T08:51:06;15.73;;;7.82;;
81124;SDS011;72192;52.114;5.424;2023-09-30T08:53:56;15.48;;;7.50;;
81124;SDS011;72192;52.114;5.424;2023-09-30T08:56:47;15.77;;;7.32;;
81124;SDS011;72192;52.114;5.424;2023-09-30T08:59:36;13.75;;;6.40;;
81124;SDS011;72192;52.114;5.424;2023-09-30T09:02:30;15.15;;;7.22;;
81124;SDS011;72192;52.114;5.424;2023-09-30T09:05:20;18.30;;;6.97;;
81124;SDS011;72192;52.114;5.424;2023-09-30T09:10:57;15.02;;;6.38;;
81124;SDS011;72192;52.114;5.424;2023-09-30T09:13:50;17.30;;;6.40;;
81124;SDS011;72192;52.114;5.424;2023-09-30T09:16:50;12.65;;;6.18;;
81124;SDS011;72192;52.114;5.424;2023-09-30T09:19:40;13.60;;;6.35;;
81124;SDS011;72192;52.114;5.424;2023-09-30T09:22:39;14.77;;;6.50;;
81124;SDS011;72192;52.114;5.424;2023-09-30T09:25:33;12.43;;;6.80;;
81124;SDS011;72192;52.114;5.424;2023-09-30T09:28:33;16.15;;;6.95;;
81124;SDS011;72192;52.114;5.424;2023-09-30T09:31:29;16.30;;;6.88;;
81124;SDS011;72192;52.114;5.424;2023-09-30T09:34:23;12.98;;;6.30;;
81124;SDS011;72192;52.114;5.424;2023-09-30T09:37:15;13.80;;;6.18;;
81124;SDS011;72192;52.114;5.424;2023-09-30T09:40:08;13.07;;;5.13;;
81124;SDS011;72192;52.114;5.424;2023-09-30T09:43:00;13.75;;;5.47;;
81124;SDS011;72192;52.114;5.424;2023-09-30T09:45:52;14.13;;;5.30;;
81124;SDS011;72192;52.114;5.424;2023-09-30T09:48:45;13.88;;;5.38;;
81124;SDS011;72192;52.114;5.424;2023-09-30T09:51:34;15.88;;;5.72;;
81124;SDS011;72192;52.114;5.424;2023-09-30T09:54:22;12.43;;;5.55;;
81124;SDS011;72192;52.114;5.424;2023-09-30T09:57:12;14.93;;;5.88;;
81124;SDS011;72192;52.114;5.424;2023-09-30T10:00:01;13.25;;;5.88;;
81124;SDS011;72192;52.114;5.424;2023-09-30T10:02:52;11.35;;;4.38;;
81124;SDS011;72192;52.114;5.424;2023-09-30T10:05:40;12.68;;;4.82;;
81124;SDS011;72192;52.114;5.424;2023-09-30T10:08:33;11.10;;;3.65;;
81124;SDS011;72192;52.114;5.424;2023-09-30T10:11:32;9.98;;;3.80;;
81124;SDS011;72192;52.114;5.424;2023-09-30T10:14:30;13.13;;;3.67;;
81124;SDS011;72192;52.114;5.424;2023-09-30T10:17:40;11.68;;;3.25;;
81124;SDS011;72192;52.114;5.424;2023-09-30T10:21:07;10.23;;;2.90;;
81124;SDS011;72192;52.114;5.424;2023-09-30T10:24:27;8.23;;;2.80;;
81124;SDS011;72192;52.114;5.424;2023-09-30T10:30:21;6.38;;;2.58;;
81124;SDS011;72192;52.114;5.424;2023-09-30T10:33:09;9.80;;;2.80;;
81124;SDS011;72192;52.114;5.424;2023-09-30T10:35:58;8.25;;;2.80;;
81124;SDS011;72192;52.114;5.424;2023-09-30T10:38:49;10.50;;;3.03;;
81124;SDS011;72192;52.114;5.424;2023-09-30T10:44:32;10.30;;;2.80;;
81124;SDS011;72192;52.114;5.424;2023-09-30T10:50:48;9.85;;;3.10;;
81124;SDS011;72192;52.114;5.424;2023-09-30T10:53:59;12.38;;;3.63;;
81124;SDS011;72192;52.114;5.424;2023-09-30T10:56:47;8.90;;;2.45;;
81124;SDS011;72192;52.114;5.424;2023-09-30T10:59:35;8.05;;;3.20;;
81124;SDS011;72192;52.114;5.424;2023-09-30T11:02:23;8.82;;;3.00;;
81124;SDS011;72192;52.114;5.424;2023-09-30T11:05:12;9.85;;;3.60;;
81124;SDS011;72192;52.114;5.424;2023-09-30T11:08:01;14.45;;;3.05;;
81124;SDS011;72192;52.114;5.424;2023-09-30T11:10:50;10.23;;;3.47;;
81124;SDS011;72192;52.114;5.424;2023-09-30T11:13:40;7.72;;;2.80;;
81124;SDS011;72192;52.114;5.424;2023-09-30T11:16:29;9.32;;;2.80;;
81124;SDS011;72192;52.114;5.424;2023-09-30T11:19:17;7.35;;;2.33;;
81124;SDS011;72192;52.114;5.424;2023-09-30T11:22:09;9.00;;;2.78;;
81124;SDS011;72192;52.114;5.424;2023-09-30T11:24:57;7.13;;;2.20;;
81124;SDS011;72192;52.114;5.424;2023-09-30T11:27:45;8.82;;;2.25;;
81124;SDS011;72192;52.114;5.424;2023-09-30T11:30:34;7.93;;;1.80;;
81124;SDS011;72192;52.114;5.424;2023-09-30T11:33:22;7.95;;;2.55;;
81124;SDS011;72192;52.114;5.424;2023-09-30T11:36:10;12.23;;;2.53;;
81124;SDS011;72192;52.114;5.424;2023-09-30T11:39:01;7.20;;;2.00;;
81124;SDS011;72192;52.114;5.424;2023-09-30T11:41:49;6.55;;;2.10;;
81124;SDS011;72192;52.114;5.424;2023-09-30T11:44:44;4.72;;;1.92;;
81124;SDS011;72192;52.114;5.424;2023-09-30T11:47:36;6.40;;;2.00;;
81124;SDS011;72192;52.114;5.424;2023-09-30T11:50:26;8.00;;;2.90;;
81124;SDS011;72192;52.114;5.424;2023-09-30T11:53:35;6.60;;;2.47;;
81124;SDS011;72192;52.114;5.424;2023-09-30T11:56:23;10.48;;;2.20;;
81124;SDS011;72192;52.114;5.424;2023-09-30T11:59:16;8.05;;;2.47;;
81124;SDS011;72192;52.114;5.424;2023-09-30T12:02:05;8.25;;;1.83;;
81124;SDS011;72192;52.114;5.424;2023-09-30T12:04:55;8.85;;;2.20;;
81124;SDS011;72192;52.114;5.424;2023-09-30T12:07:44;7.15;;;2.22;;
81124;SDS011;72192;52.114;5.424;2023-09-30T12:10:33;7.25;;;1.95;;
81124;SDS011;72192;52.114;5.424;2023-09-30T12:13:16;8.88;;;2.47;;
81124;SDS011;72192;52.114;5.424;2023-09-30T12:16:05;5.97;;;2.08;;
81124;SDS011;72192;52.114;5.424;2023-09-30T12:18:53;8.27;;;2.25;;
81124;SDS011;72192;52.114;5.424;2023-09-30T12:21:42;8.57;;;2.72;;
81124;SDS011;72192;52.114;5.424;2023-09-30T12:24:32;9.05;;;2.30;;
81124;SDS011;72192;52.114;5.424;2023-09-30T12:27:21;6.13;;;1.92;;
81124;SDS011;72192;52.114;5.424;2023-09-30T12:30:09;11.52;;;2.30;;
81124;SDS011;72192;52.114;5.424;2023-09-30T12:33:00;7.32;;;2.20;;
81124;SDS011;72192;52.114;5.424;2023-09-30T12:35:48;7.78;;;2.28;;
81124;SDS011;72192;52.114;5.424;2023-09-30T12:38:38;6.80;;;2.00;;
81124;SDS011;72192;52.114;5.424;2023-09-30T12:41:26;7.22;;;2.15;;
81124;SDS011;72192;52.114;5.424;2023-09-30T12:44:16;5.47;;;1.73;;
81124;SDS011;72192;52.114;5.424;2023-09-30T12:47:04;7.57;;;2.00;;
81124;SDS011;72192;52.114;5.424;2023-09-30T12:49:53;6.30;;;1.88;;
81124;SDS011;72192;52.114;5.424;2023-09-30T12:52:42;8.98;;;2.28;;
81124;SDS011;72192;52.114;5.424;2023-09-30T12:55:30;5.75;;;1.60;;
81124;SDS011;72192;52.114;5.424;2023-09-30T12:58:18;7.95;;;2.38;;
81124;SDS011;72192;52.114;5.424;2023-09-30T13:01:07;8.35;;;2.35;;
81124;SDS011;72192;52.114;5.424;2023-09-30T13:03:55;9.23;;;2.22;;
81124;SDS011;72192;52.114;5.424;2023-09-30T13:06:43;5.68;;;2.00;;
81124;SDS011;72192;52.114;5.424;2023-09-30T13:09:31;10.60;;;2.55;;
81124;SDS011;72192;52.114;5.424;2023-09-30T13:12:20;7.07;;;2.20;;
81124;SDS011;72192;52.114;5.424;2023-09-30T13:15:08;7.32;;;2.08;;
81124;SDS011;72192;52.114;5.424;2023-09-30T13:17:56;6.63;;;1.60;;
81124;SDS011;72192;52.114;5.424;2023-09-30T13:20:45;5.05;;;1.50;;
81124;SDS011;72192;52.114;5.424;2023-09-30T13:23:33;9.50;;;1.98;;
81124;SDS011;72192;52.114;5.424;2023-09-30T13:26:22;6.47;;;1.85;;
81124;SDS011;72192;52.114;5.424;2023-09-30T13:29:10;8.32;;;2.00;;
81124;SDS011;72192;52.114;5.424;2023-09-30T13:31:59;8.23;;;2.00;;
81124;SDS011;72192;52.114;5.424;2023-09-30T13:34:47;9.18;;;2.17;;
81124;SDS011;72192;52.114;5.424;2023-09-30T13:37:37;8.90;;;2.28;;
81124;SDS011;72192;52.114;5.424;2023-09-30T13:40:25;6.72;;;1.92;;
81124;SDS011;72192;52.114;5.424;2023-09-30T13:43:13;7.25;;;1.77;;
81124;SDS011;72192;52.114;5.424;2023-09-30T13:46:05;7.80;;;2.08;;
81124;SDS011;72192;52.114;5.424;2023-09-30T13:48:53;7.80;;;2.15;;
81124;SDS011;72192;52.114;5.424;2023-09-30T13:51:41;5.30;;;1.90;;
81124;SDS011;72192;52.114;5.424;2023-09-30T13:54:30;9.23;;;2.42;;
81124;SDS011;72192;52.114;5.424;2023-09-30T13:57:18;6.05;;;2.13;;
81124;SDS011;72192;52.114;5.424;2023-09-30T14:00:06;8.77;;;2.90;;
81124;SDS011;72192;52.114;5.424;2023-09-30T14:02:57;10.10;;;2.28;;
81124;SDS011;72192;52.114;5.424;2023-09-30T14:05:47;9.60;;;2.30;;
81124;SDS011;72192;52.114;5.424;2023-09-30T14:08:35;7.72;;;2.50;;
81124;SDS011;72192;52.114;5.424;2023-09-30T14:11:24;10.70;;;2.65;;
81124;SDS011;72192;52.114;5.424;2023-09-30T14:14:12;11.65;;;2.55;;
81124;SDS011;72192;52.114;5.424;2023-09-30T14:17:01;7.55;;;2.25;;
81124;SDS011;72192;52.114;5.424;2023-09-30T14:19:57;10.68;;;2.90;;
81124;SDS011;72192;52.114;5.424;2023-09-30T14:22:45;9.73;;;2.42;;
81124;SDS011;72192;52.114;5.424;2023-09-30T14:25:33;10.32;;;2.72;;
81124;SDS011;72192;52.114;5.424;2023-09-30T14:28:22;10.32;;;2.72;;
81124;SDS011;72192;52.114;5.424;2023-09-30T14:31:10;9.98;;;2.78;;
81124;SDS011;72192;52.114;5.424;2023-09-30T14:33:59;9.60;;;2.83;;
81124;SDS011;72192;52.114;5.424;2023-09-30T14:36:47;10.05;;;2.70;;
81124;SDS011;72192;52.114;5.424;2023-09-30T14:39:36;7.43;;;2.53;;
81124;SDS011;72192;52.114;5.424;2023-09-30T14:42:25;12.07;;;3.20;;
81124;SDS011;72192;52.114;5.424;2023-09-30T14:45:13;6.45;;;2.72;;
81124;SDS011;72192;52.114;5.424;2023-09-30T14:48:02;9.30;;;2.78;;
81124;SDS011;72192;52.114;5.424;2023-09-30T14:50:50;9.77;;;2.70;;
81124;SDS011;72192;52.114;5.424;2023-09-30T14:53:39;9.35;;;2.50;;
81124;SDS011;72192;52.114;5.424;2023-09-30T14:56:27;10.10;;;3.20;;
81124;SDS011;72192;52.114;5.424;2023-09-30T14:59:15;7.53;;;2.42;;
81124;SDS011;72192;52.114;5.424;2023-09-30T15:02:03;11.18;;;2.30;;
81124;SDS011;72192;52.114;5.424;2023-09-30T15:04:54;8.40;;;2.50;;
81124;SDS011;72192;52.114;5.424;2023-09-30T15:07:43;9.15;;;2.20;;
81124;SDS011;72192;52.114;5.424;2023-09-30T15:10:34;8.45;;;2.10;;
81124;SDS011;72192;52.114;5.424;2023-09-30T15:13:22;9.18;;;2.42;;
81124;SDS011;72192;52.114;5.424;2023-09-30T15:16:14;10.90;;;2.92;;
81124;SDS011;72192;52.114;5.424;2023-09-30T15:19:04;7.10;;;2.20;;
81124;SDS011;72192;52.114;5.424;2023-09-30T15:21:53;8.23;;;2.15;;
81124;SDS011;72192;52.114;5.424;2023-09-30T15:24:41;8.82;;;2.17;;
81124;SDS011;72192;52.114;5.424;2023-09-30T15:27:29;8.20;;;2.28;;
81124;SDS011;72192;52.114;5.424;2023-09-30T15:30:20;9.82;;;2.30;;
81124;SDS011;72192;52.114;5.424;2023-09-30T15:33:09;9.07;;;2.30;;
81124;SDS011;72192;52.114;5.424;2023-09-30T15:35:57;7.65;;;2.28;;
81124;SDS011;72192;52.114;5.424;2023-09-30T15:38:45;9.48;;;2.60;;
81124;SDS011;72192;52.114;5.424;2023-09-30T15:41:33;12.20;;;2.88;;
81124;SDS011;72192;52.114;5.424;2023-09-30T15:44:21;7.63;;;2.33;;
81124;SDS011;72192;52.114;5.424;2023-09-30T15:47:09;10.82;;;2.92;;
81124;SDS011;72192;52.114;5.424;2023-09-30T15:49:57;9.73;;;2.72;;
81124;SDS011;72192;52.114;5.424;2023-09-30T15:52:46;9.00;;;2.80;;
81124;SDS011;72192;52.114;5.424;2023-09-30T15:55:34;9.65;;;2.30;;
81124;SDS011;72192;52.114;5.424;2023-09-30T15:58:24;8.15;;;3.10;;
81124;SDS011;72192;52.114;5.424;2023-09-30T16:01:12;9.95;;;2.55;;
81124;SDS011;72192;52.114;5.424;2023-09-30T16:04:00;10.88;;;2.75;;
81124;SDS011;72192;52.114;5.424;2023-09-30T16:06:48;10.30;;;2.55;;
81124;SDS011;72192;52.114;5.424;2023-09-30T16:09:36;9.95;;;2.83;;
81124;SDS011;72192;52.114;5.424;2023-09-30T16:12:25;8.02;;;2.63;;
81124;SDS011;72192;52.114;5.424;2023-09-30T16:15:13;9.48;;;2.55;;
81124;SDS011;72192;52.114;5.424;2023-09-30T16:18:01;12.10;;;2.53;;
81124;SDS011;72192;52.114;5.424;2023-09-30T16:20:49;7.07;;;2.70;;
81124;SDS011;72192;52.114;5.424;2023-09-30T16:23:38;7.70;;;2.67;;
81124;SDS011;72192;52.114;5.424;2023-09-30T16:26:26;8.80;;;2.45;;
81124;SDS011;72192;52.114;5.424;2023-09-30T16:29:14;10.60;;;2.70;;
81124;SDS011;72192;52.114;5.424;2023-09-30T16:32:02;8.57;;;2.75;;
81124;SDS011;72192;52.114;5.424;2023-09-30T16:34:51;8.55;;;2.75;;
81124;SDS011;72192;52.114;5.424;2023-09-30T16:37:39;7.13;;;2.20;;
81124;SDS011;72192;52.114;5.424;2023-09-30T16:40:31;8.73;;;2.75;;
81124;SDS011;72192;52.114;5.424;2023-09-30T16:43:19;9.95;;;2.50;;
81124;SDS011;72192;52.114;5.424;2023-09-30T16:46:07;9.63;;;2.58;;
81124;SDS011;72192;52.114;5.424;2023-09-30T16:48:55;6.47;;;2.17;;
81124;SDS011;72192;52.114;5.424;2023-09-30T16:51:43;8.68;;;2.60;;
81124;SDS011;72192;52.114;5.424;2023-09-30T16:54:32;10.70;;;2.92;;
81124;SDS011;72192;52.114;5.424;2023-09-30T16:57:21;9.55;;;2.83;;
81124;SDS011;72192;52.114;5.424;2023-09-30T17:00:09;9.00;;;2.83;;
81124;SDS011;72192;52.114;5.424;2023-09-30T17:03:01;6.55;;;2.80;;
81124;SDS011;72192;52.114;5.424;2023-09-30T17:05:52;10.05;;;2.95;;
81124;SDS011;72192;52.114;5.424;2023-09-30T17:08:41;9.80;;;3.20;;
81124;SDS011;72192;52.114;5.424;2023-09-30T17:11:29;6.13;;;2.40;;
81124;SDS011;72192;52.114;5.424;2023-09-30T17:14:17;7.13;;;2.90;;
81124;SDS011;72192;52.114;5.424;2023-09-30T17:17:05;14.25;;;2.85;;
81124;SDS011;72192;52.114;5.424;2023-09-30T17:19:54;12.38;;;3.10;;
81124;SDS011;72192;52.114;5.424;2023-09-30T17:22:42;9.55;;;2.60;;
81124;SDS011;72192;52.114;5.424;2023-09-30T17:28:18;7.93;;;2.50;;
81124;SDS011;72192;52.114;5.424;2023-09-30T17:31:09;9.35;;;2.50;;
81124;SDS011;72192;52.114;5.424;2023-09-30T17:33:58;6.40;;;2.50;;